Terminal Aerodrome Forecast
Issued by NWS

Home | Current Version | Previous Version | Text Only | Print | Product List | Glossary On
Versions: 1 2 3 4 5 6 7 8 9 10 11 12 13 14 15 16 17 18 19 20 21 22 23 24
083
FTUS46 KMFR 010223 AAA
TAFOTH
TAF AMD
KOTH 010223Z 0102/0124 19009KT P6SM VCSH BKN035 OVC080
     FM010600 15006KT P6SM -SHRA SCT020 OVC050
     FM011000 16008KT P6SM -SHRA SCT015 OVC030
     FM011600 21013G20KT P6SM -SHRA SCT020 OVC035
      AMD NOT SKED=

USA.gov is the U.S. government's official web portal to all federal, state and local government web resources and services.